createdAt,value
2023-03-15T00:00:38.175Z,2.63
2023-03-15T00:03:05.674Z,1.50
2023-03-15T00:05:32.910Z,1.33
2023-03-15T00:08:00.254Z,1.38
2023-03-15T00:10:27.623Z,1.90
2023-03-15T00:12:55.043Z,1.20
2023-03-15T00:15:22.557Z,2.15
2023-03-15T00:17:49.773Z,1.70
2023-03-15T00:20:19.033Z,1.88
2023-03-15T00:22:46.551Z,1.52
2023-03-15T00:25:13.848Z,1.45
2023-03-15T00:27:41.062Z,2.45
2023-03-15T00:30:08.552Z,2.17
2023-03-15T00:32:35.761Z,1.13
2023-03-15T00:35:03.241Z,1.88
2023-03-15T00:37:31.496Z,1.60
2023-03-15T00:39:58.770Z,1.45
2023-03-15T00:42:29.052Z,1.33
2023-03-15T00:44:56.293Z,1.58
2023-03-15T00:47:23.877Z,1.33
2023-03-15T00:49:51.190Z,1.65
2023-03-15T00:52:19.384Z,2.00
2023-03-15T00:54:56.273Z,1.45
2023-03-15T00:57:23.748Z,2.08
2023-03-15T00:59:53.246Z,1.67
2023-03-15T01:02:23.648Z,1.55
2023-03-15T01:04:51.431Z,2.03
2023-03-15T01:07:18.750Z,1.67
2023-03-15T01:09:48.436Z,1.52
2023-03-15T01:12:15.822Z,2.00
2023-03-15T01:14:43.059Z,1.30
2023-03-15T01:17:10.314Z,1.35
2023-03-15T01:19:37.572Z,2.35
2023-03-15T01:22:04.800Z,2.55
2023-03-15T01:24:32.069Z,1.23
2023-03-15T01:26:59.312Z,1.35
2023-03-15T01:29:26.597Z,2.15
2023-03-15T01:31:53.911Z,1.10
2023-03-15T01:34:21.626Z,1.50
2023-03-15T01:36:52.557Z,1.70
2023-03-15T01:39:19.812Z,1.85
2023-03-15T01:41:47.185Z,1.20
2023-03-15T01:44:15.461Z,1.50
2023-03-15T01:46:42.766Z,1.63
2023-03-15T01:49:10.012Z,1.20
2023-03-15T01:51:43.517Z,1.40
2023-03-15T01:54:10.712Z,1.85
2023-03-15T01:56:41.828Z,1.92
2023-03-15T01:59:11.705Z,2.40
2023-03-15T02:01:45.894Z,1.30
2023-03-15T02:04:15.178Z,1.50
2023-03-15T02:06:46.702Z,1.20
2023-03-15T02:09:16.224Z,1.25
2023-03-15T02:11:43.825Z,1.42
2023-03-15T02:14:13.194Z,1.50
2023-03-15T02:16:40.686Z,2.13
2023-03-15T02:19:12.677Z,1.52
2023-03-15T02:21:46.042Z,1.45
2023-03-15T02:24:22.130Z,1.80
2023-03-15T02:26:54.818Z,1.77
2023-03-15T02:29:24.214Z,1.35
2023-03-15T02:31:52.280Z,1.40
2023-03-15T02:34:25.518Z,1.23
2023-03-15T02:36:54.250Z,1.55
2023-03-15T02:39:22.784Z,2.13
2023-03-15T02:41:54.362Z,4.68
2023-03-15T02:44:21.641Z,3.35
2023-03-15T02:46:53.670Z,1.15
2023-03-15T02:49:23.025Z,2.03
2023-03-15T02:51:50.295Z,1.65
2023-03-15T02:54:17.607Z,1.98
2023-03-15T02:56:44.883Z,1.15
2023-03-15T02:59:12.948Z,1.75
2023-03-15T03:01:40.508Z,2.28
2023-03-15T03:04:08.163Z,1.52
2023-03-15T03:06:35.379Z,1.50
2023-03-15T03:09:03.405Z,1.33
2023-03-15T03:11:30.869Z,2.20
2023-03-15T03:13:58.160Z,2.45
2023-03-15T03:16:25.491Z,2.28
2023-03-15T03:18:52.878Z,2.72
2023-03-15T03:21:20.175Z,1.90
2023-03-15T03:23:47.424Z,2.30
2023-03-15T03:26:16.933Z,2.00
2023-03-15T03:28:46.472Z,2.35
2023-03-15T03:31:17.648Z,1.60
2023-03-15T03:33:44.965Z,2.35
2023-03-15T03:36:13.213Z,1.50
2023-03-15T03:38:45.127Z,1.63
2023-03-15T03:41:12.844Z,2.10
2023-03-15T03:43:40.440Z,1.55
2023-03-15T03:46:07.842Z,1.73
2023-03-15T03:48:35.166Z,1.58
2023-03-15T03:51:02.405Z,1.40
2023-03-15T03:53:29.643Z,1.67
2023-03-15T03:55:56.885Z,2.45
2023-03-15T03:58:24.114Z,1.30
2023-03-15T04:00:54.418Z,1.83
2023-03-15T04:03:27.467Z,1.73
2023-03-15T04:05:55.538Z,1.77
2023-03-15T04:08:23.423Z,1.70
2023-03-15T04:10:59.827Z,1.35
2023-03-15T04:13:27.150Z,1.40
2023-03-15T04:15:57.899Z,2.33
2023-03-15T04:18:25.660Z,1.50
2023-03-15T04:20:54.794Z,1.90
2023-03-15T04:23:23.540Z,1.80
2023-03-15T04:25:55.395Z,2.13
2023-03-15T04:28:23.020Z,1.98
2023-03-15T04:30:51.116Z,2.22
2023-03-15T04:33:18.418Z,2.15
2023-03-15T04:35:45.747Z,1.75
2023-03-15T04:38:13.045Z,2.13
2023-03-15T04:40:42.922Z,1.92
2023-03-15T04:43:10.181Z,1.52
2023-03-15T04:45:37.413Z,1.73
2023-03-15T04:48:04.674Z,1.83
2023-03-15T04:50:31.915Z,1.95
2023-03-15T04:52:59.850Z,2.13
2023-03-15T04:55:27.358Z,1.80
2023-03-15T04:57:55.455Z,1.85
2023-03-15T05:00:22.917Z,2.20
2023-03-15T05:02:55.112Z,2.85
2023-03-15T05:05:23.908Z,3.20
2023-03-15T05:07:51.312Z,2.90
2023-03-15T05:10:18.997Z,3.28
2023-03-15T05:12:46.335Z,2.72
2023-03-15T05:15:13.693Z,3.60
2023-03-15T05:17:40.952Z,2.55
2023-03-15T05:20:12.624Z,2.28
2023-03-15T05:22:40.935Z,4.15
2023-03-15T05:25:08.946Z,3.08
2023-03-15T05:27:36.317Z,2.83
2023-03-15T05:30:04.151Z,3.15
2023-03-15T05:32:34.518Z,3.05
2023-03-15T05:35:02.337Z,4.00
2023-03-15T05:37:29.704Z,4.68
2023-03-15T05:39:57.020Z,4.05
2023-03-15T05:42:26.402Z,4.18
2023-03-15T05:44:57.427Z,4.20
2023-03-15T05:47:24.949Z,4.20
2023-03-15T05:49:53.500Z,3.42
2023-03-15T05:52:20.845Z,4.28
2023-03-15T05:54:48.101Z,5.32
2023-03-15T05:57:15.310Z,4.32
2023-03-15T05:59:42.571Z,5.10
2023-03-15T06:02:09.859Z,4.13
2023-03-15T06:04:38.221Z,3.53
2023-03-15T06:07:05.681Z,3.30
2023-03-15T06:09:33.308Z,3.55
2023-03-15T06:12:00.701Z,3.55
2023-03-15T06:14:28.262Z,5.53
2023-03-15T06:16:55.580Z,3.22
2023-03-15T06:19:23.237Z,3.50
2023-03-15T06:21:51.442Z,3.55
2023-03-15T06:24:18.680Z,4.47
2023-03-15T06:26:45.901Z,3.00
2023-03-15T06:29:13.240Z,3.15
2023-03-15T06:31:40.589Z,3.47
2023-03-15T06:34:07.844Z,3.70
2023-03-15T06:36:37.035Z,3.70
2023-03-15T06:39:05.800Z,3.50
2023-03-15T06:41:33.034Z,4.28
2023-03-15T06:44:00.559Z,4.03
2023-03-15T06:46:27.878Z,4.20
2023-03-15T06:48:55.190Z,3.63
2023-03-15T06:51:22.542Z,4.38
2023-03-15T06:53:49.792Z,4.38
2023-03-15T06:56:17.064Z,4.50
2023-03-15T06:58:44.546Z,4.20
2023-03-15T07:01:15.081Z,4.32
2023-03-15T07:03:42.783Z,4.50
2023-03-15T07:06:10.189Z,5.78
2023-03-15T07:08:37.502Z,5.07
2023-03-15T07:11:04.881Z,4.40
2023-03-15T07:13:32.229Z,4.55
2023-03-15T07:15:59.549Z,5.40
2023-03-15T07:18:27.188Z,3.80
2023-03-15T07:21:01.474Z,5.32
2023-03-15T07:23:28.792Z,5.30
2023-03-15T07:25:56.457Z,4.72
2023-03-15T07:28:24.703Z,5.10
2023-03-15T07:30:54.805Z,5.30
2023-03-15T07:33:22.892Z,5.72
2023-03-15T07:35:50.918Z,5.03
2023-03-15T07:38:18.387Z,4.90
2023-03-15T07:40:45.697Z,4.90
2023-03-15T07:43:13.187Z,4.85
2023-03-15T07:45:40.785Z,4.97
2023-03-15T07:48:08.051Z,6.43
2023-03-15T07:50:35.404Z,5.30
2023-03-15T07:53:03.699Z,5.95
2023-03-15T07:55:32.020Z,5.68
2023-03-15T07:57:59.214Z,5.68
2023-03-15T08:00:26.509Z,7.22
2023-03-15T08:02:54.074Z,5.82
2023-03-15T08:05:22.139Z,5.78
2023-03-15T08:07:50.160Z,5.47
2023-03-15T08:10:17.625Z,5.90
2023-03-15T08:12:45.161Z,5.63
2023-03-15T08:15:13.317Z,6.00
2023-03-15T08:17:41.196Z,6.43
2023-03-15T08:20:11.721Z,5.00
2023-03-15T08:22:39.347Z,6.43
2023-03-15T08:25:07.085Z,5.82
2023-03-15T08:27:34.346Z,7.10
2023-03-15T08:30:01.806Z,4.60
2023-03-15T08:32:29.053Z,5.20
2023-03-15T08:34:56.360Z,4.50
2023-03-15T08:37:24.058Z,5.72
2023-03-15T08:39:58.097Z,4.47
2023-03-15T08:42:25.299Z,5.63
2023-03-15T08:44:52.544Z,4.57
2023-03-15T08:47:20.117Z,4.80
2023-03-15T08:49:47.389Z,4.30
2023-03-15T08:52:16.568Z,4.40
2023-03-15T08:54:44.940Z,4.22
2023-03-15T08:57:12.929Z,4.63
2023-03-15T08:59:40.432Z,2.85
2023-03-15T09:02:07.976Z,3.35
2023-03-15T09:04:35.494Z,2.95
2023-03-15T09:07:02.834Z,3.45
2023-03-15T09:09:30.075Z,4.03
2023-03-15T09:11:57.646Z,4.28
2023-03-15T09:14:24.924Z,2.55
2023-03-15T09:16:52.602Z,2.50
2023-03-15T09:19:19.942Z,2.90
2023-03-15T09:21:47.310Z,2.92
2023-03-15T09:24:14.884Z,2.78
2023-03-15T09:26:42.305Z,2.78
2023-03-15T09:29:09.696Z,2.53
2023-03-15T09:31:37.004Z,2.92
2023-03-15T09:34:05.834Z,2.63
2023-03-15T09:36:33.818Z,2.22
2023-03-15T09:39:04.796Z,3.40
2023-03-15T09:41:42.434Z,2.67
2023-03-15T09:44:09.691Z,3.50
2023-03-15T09:46:42.594Z,2.28
2023-03-15T09:49:13.653Z,2.80
2023-03-15T09:51:48.081Z,2.97
2023-03-15T09:54:23.959Z,2.77
2023-03-15T09:56:57.108Z,2.53
2023-03-15T09:59:30.611Z,1.90
2023-03-15T10:01:59.517Z,1.80
2023-03-15T10:04:31.951Z,1.73
2023-03-15T10:07:00.414Z,1.90
2023-03-15T10:09:33.143Z,1.80
2023-03-15T10:12:04.428Z,1.70
2023-03-15T10:14:33.883Z,2.10
2023-03-15T10:17:04.178Z,1.75
2023-03-15T10:19:46.553Z,2.33
2023-03-15T10:22:13.777Z,1.77
2023-03-15T10:25:00.015Z,2.20
2023-03-15T10:27:44.527Z,1.77
2023-03-15T10:30:25.407Z,2.00
2023-03-15T10:32:55.759Z,2.30
2023-03-15T10:35:23.096Z,2.40
2023-03-15T10:37:50.691Z,2.10
2023-03-15T10:40:38.667Z,2.30
2023-03-15T10:43:13.913Z,2.30
2023-03-15T10:45:41.208Z,2.13
2023-03-15T10:48:09.036Z,2.63
2023-03-15T10:50:38.963Z,2.25
2023-03-15T10:53:11.152Z,2.25
2023-03-15T10:55:43.044Z,3.47
2023-03-15T10:58:20.183Z,2.55
2023-03-15T11:00:54.903Z,5.65
2023-03-15T11:03:24.204Z,2.72
2023-03-15T11:05:53.343Z,2.45
2023-03-15T11:08:21.748Z,3.08
2023-03-15T11:10:56.356Z,3.50
2023-03-15T11:13:28.230Z,3.20
2023-03-15T11:16:13.774Z,3.08
2023-03-15T11:18:46.652Z,2.50
2023-03-15T11:21:15.030Z,23.88
2023-03-15T11:23:44.286Z,10.13
2023-03-15T11:26:29.459Z,2.92
2023-03-15T11:29:05.551Z,3.10
2023-03-15T11:31:32.963Z,3.03
2023-03-15T11:34:08.724Z,2.97
2023-03-15T11:36:39.645Z,3.88
2023-03-15T11:39:07.418Z,2.15
2023-03-15T11:41:41.159Z,3.03
2023-03-15T11:44:17.578Z,1.88
2023-03-15T11:46:48.276Z,1.70
2023-03-15T11:49:34.309Z,1.25
2023-03-15T11:52:01.769Z,1.70
2023-03-15T11:54:32.706Z,1.35
2023-03-15T11:57:03.396Z,1.70
2023-03-15T11:59:32.869Z,1.70
2023-03-15T12:02:01.994Z,1.80
2023-03-15T12:04:38.047Z,2.67
2023-03-15T12:07:14.416Z,2.63
2023-03-15T12:09:48.154Z,1.55
2023-03-15T12:12:27.329Z,1.25
2023-03-15T12:15:07.161Z,3.25
2023-03-15T12:17:37.855Z,1.90
2023-03-15T12:20:14.073Z,3.50
2023-03-15T12:22:48.109Z,1.73
2023-03-15T12:25:16.634Z,1.38
2023-03-15T12:27:51.807Z,1.50
2023-03-15T12:30:36.722Z,1.40
2023-03-15T12:33:04.487Z,1.23
2023-03-15T12:35:40.570Z,1.42
2023-03-15T12:38:16.938Z,1.20
2023-03-15T12:40:57.481Z,1.33
2023-03-15T12:43:38.738Z,1.42
2023-03-15T12:46:06.871Z,0.82
2023-03-15T12:48:34.320Z,1.15
2023-03-15T12:51:04.057Z,1.00
2023-03-15T12:53:38.460Z,0.73
2023-03-15T12:56:24.611Z,0.87
2023-03-15T12:58:54.288Z,0.50
2023-03-15T13:01:25.841Z,0.70
2023-03-15T13:03:57.077Z,0.93
2023-03-15T13:06:46.624Z,1.00
2023-03-15T13:09:14.848Z,0.85
2023-03-15T13:11:50.963Z,0.85
2023-03-15T13:14:37.570Z,1.10
2023-03-15T13:17:08.778Z,0.98
2023-03-15T13:19:42.700Z,1.00
2023-03-15T13:22:25.396Z,1.75
2023-03-15T13:25:05.535Z,1.23
2023-03-15T13:27:50.876Z,0.80
2023-03-15T13:30:37.301Z,0.98
2023-03-15T13:33:21.437Z,1.05
2023-03-15T13:36:01.138Z,1.30
2023-03-15T13:38:28.543Z,0.70
2023-03-15T13:40:56.494Z,1.20
2023-03-15T13:43:28.049Z,1.25
2023-03-15T13:45:57.701Z,1.10
2023-03-15T13:48:27.261Z,0.95
2023-03-15T13:50:54.727Z,0.93
2023-03-15T13:53:38.489Z,1.42
2023-03-15T13:56:17.117Z,0.80
2023-03-15T13:58:44.396Z,0.90
2023-03-15T14:01:13.363Z,0.68
2023-03-15T14:03:44.163Z,0.63
2023-03-15T14:06:21.893Z,0.60
2023-03-15T14:08:49.898Z,0.60
2023-03-15T14:11:32.328Z,0.88
2023-03-15T14:14:05.463Z,0.77
2023-03-15T14:16:32.756Z,0.73
2023-03-15T14:19:18.642Z,1.10
2023-03-15T14:21:49.063Z,1.00
2023-03-15T14:24:17.995Z,0.70
2023-03-15T14:26:45.458Z,1.10
2023-03-15T14:29:21.709Z,0.70
2023-03-15T14:31:50.713Z,0.70
2023-03-15T14:34:24.574Z,0.80
2023-03-15T14:36:55.739Z,1.13
2023-03-15T14:39:31.204Z,0.90
2023-03-15T14:41:58.594Z,0.70
2023-03-15T14:44:25.803Z,0.80
2023-03-15T14:46:53.337Z,0.65
2023-03-15T14:49:23.987Z,0.65
2023-03-15T14:51:53.816Z,0.63
2023-03-15T14:54:21.250Z,0.95
2023-03-15T14:56:48.523Z,0.60
2023-03-15T14:59:15.810Z,0.57
2023-03-15T15:01:46.927Z,0.90
2023-03-15T15:04:14.946Z,1.17
2023-03-15T15:06:50.939Z,0.80
2023-03-15T15:09:20.516Z,0.80
2023-03-15T15:11:47.760Z,0.90
2023-03-15T15:14:15.568Z,1.15
2023-03-15T15:16:43.548Z,1.02
2023-03-15T15:19:11.168Z,1.02
2023-03-15T15:21:38.783Z,1.20
2023-03-15T15:24:07.984Z,1.50
2023-03-15T15:26:35.264Z,1.10
2023-03-15T15:29:03.134Z,1.20
2023-03-15T15:31:34.388Z,1.10
2023-03-15T15:34:02.049Z,1.20
2023-03-15T15:36:32.527Z,1.50
2023-03-15T15:39:05.761Z,1.20
2023-03-15T15:41:33.877Z,1.98
2023-03-15T15:44:01.213Z,1.10
2023-03-15T15:46:28.761Z,1.30
2023-03-15T15:48:56.008Z,1.50
2023-03-15T15:51:23.275Z,1.40
2023-03-15T15:53:50.803Z,1.60
2023-03-15T15:56:18.444Z,1.33
2023-03-15T15:58:45.980Z,1.40
2023-03-15T16:01:14.792Z,0.88
2023-03-15T16:03:42.266Z,1.20
2023-03-15T16:06:17.654Z,1.35
2023-03-15T16:11:13.825Z,1.20
2023-03-15T16:13:41.347Z,1.05
2023-03-15T16:16:12.032Z,1.00
2023-03-15T16:18:39.312Z,1.88
2023-03-15T16:21:06.606Z,1.50
2023-03-15T16:23:34.173Z,3.13
2023-03-15T16:26:01.443Z,1.73
2023-03-15T16:28:28.925Z,2.50
2023-03-15T16:30:56.174Z,1.17
2023-03-15T16:33:23.991Z,1.30
2023-03-15T16:35:53.716Z,1.40
2023-03-15T16:38:32.487Z,1.40
2023-03-15T16:41:01.054Z,1.50
2023-03-15T16:43:28.883Z,1.20
2023-03-15T16:45:56.140Z,1.27
2023-03-15T16:48:23.435Z,1.45
2023-03-15T16:50:51.869Z,1.95
2023-03-15T16:53:19.906Z,2.40
2023-03-15T16:55:47.127Z,1.15
2023-03-15T16:58:19.064Z,1.42
2023-03-15T17:00:48.464Z,1.48
2023-03-15T17:03:16.463Z,2.15
2023-03-15T17:05:45.526Z,3.42
2023-03-15T17:08:14.629Z,2.30
2023-03-15T17:10:42.782Z,2.72
2023-03-15T17:13:12.497Z,3.80
2023-03-15T17:15:39.843Z,2.25
2023-03-15T17:18:08.548Z,3.05
2023-03-15T17:20:35.854Z,2.45
2023-03-15T17:23:04.782Z,2.63
2023-03-15T17:25:32.392Z,2.75
2023-03-15T17:28:00.436Z,2.33
2023-03-15T17:30:32.252Z,2.95
2023-03-15T17:32:59.534Z,2.80
2023-03-15T17:35:29.442Z,4.35
2023-03-15T17:37:56.814Z,4.85
2023-03-15T17:40:25.443Z,5.30
2023-03-15T17:42:53.283Z,5.15
2023-03-15T17:45:22.416Z,5.45
2023-03-15T17:47:50.413Z,5.72
2023-03-15T17:50:18.846Z,5.85
2023-03-15T17:52:46.970Z,5.07
2023-03-15T17:55:21.518Z,1.92
2023-03-15T17:57:54.648Z,1.92
2023-03-15T18:00:23.589Z,1.25
2023-03-15T18:02:55.536Z,0.80
2023-03-15T18:05:31.004Z,0.75
2023-03-15T18:07:59.799Z,1.10
2023-03-15T18:10:33.547Z,0.80
2023-03-15T18:13:00.892Z,0.75
2023-03-15T18:15:28.529Z,1.00
2023-03-15T18:17:55.940Z,1.45
2023-03-15T18:20:24.324Z,0.70
2023-03-15T18:22:51.891Z,0.88
2023-03-15T18:25:21.999Z,0.90
2023-03-15T18:27:49.842Z,0.80
2023-03-15T18:30:18.321Z,0.88
2023-03-15T18:32:46.008Z,0.90
2023-03-15T18:35:21.241Z,0.90
2023-03-15T18:37:48.736Z,0.73
2023-03-15T18:40:17.215Z,1.70
2023-03-15T18:42:44.521Z,0.70
2023-03-15T18:45:19.444Z,0.95
2023-03-15T18:47:46.750Z,1.40
2023-03-15T18:50:14.552Z,0.85
2023-03-15T18:52:41.922Z,0.90
2023-03-15T18:55:09.998Z,1.13
2023-03-15T18:57:37.744Z,0.98
2023-03-15T19:00:14.957Z,1.77
2023-03-15T19:02:42.853Z,0.82
2023-03-15T19:05:11.833Z,1.40
2023-03-15T19:07:39.596Z,0.73
2023-03-15T19:10:07.877Z,0.80
2023-03-15T19:12:35.830Z,0.70
2023-03-15T19:15:04.430Z,0.85
2023-03-15T19:17:31.811Z,1.20
2023-03-15T19:19:59.060Z,1.83
2023-03-15T19:22:29.180Z,2.17
2023-03-15T19:24:56.394Z,3.10
2023-03-15T19:27:23.869Z,2.70
2023-03-15T19:29:51.133Z,2.70
2023-03-15T19:32:18.472Z,2.42
2023-03-15T19:34:45.748Z,1.80
2023-03-15T19:37:12.985Z,2.50
2023-03-15T19:39:40.219Z,2.10
2023-03-15T19:42:08.215Z,1.80
2023-03-15T19:44:36.306Z,1.80
2023-03-15T19:47:03.641Z,2.58
2023-03-15T19:49:30.975Z,1.48
2023-03-15T19:51:58.215Z,1.75
2023-03-15T19:54:25.555Z,1.73
2023-03-15T19:56:54.083Z,1.88
2023-03-15T19:59:21.364Z,2.03
2023-03-15T20:01:48.597Z,2.25
2023-03-15T20:04:15.897Z,2.17
2023-03-15T20:06:43.160Z,1.98
2023-03-15T20:09:12.089Z,1.85
2023-03-15T20:11:39.315Z,2.47
2023-03-15T20:14:06.579Z,2.45
2023-03-15T20:16:33.882Z,2.47
2023-03-15T20:19:01.217Z,2.85
2023-03-15T20:21:29.485Z,3.88
2023-03-15T20:23:56.751Z,3.42
2023-03-15T20:26:25.294Z,3.05
2023-03-15T20:28:52.749Z,2.83
2023-03-15T20:31:20.385Z,3.05
2023-03-15T20:33:49.658Z,3.15
2023-03-15T20:36:17.746Z,5.03
2023-03-15T20:38:45.435Z,4.32
2023-03-15T20:41:15.608Z,3.72
2023-03-15T20:43:43.160Z,4.38
2023-03-15T20:46:12.372Z,3.67
2023-03-15T20:48:39.933Z,5.00
2023-03-15T20:51:07.240Z,4.97
2023-03-15T20:53:35.472Z,4.40
2023-03-15T20:56:03.416Z,4.03
2023-03-15T20:58:31.046Z,6.70
2023-03-15T21:01:06.012Z,3.20
2023-03-15T21:03:34.555Z,3.45
2023-03-15T21:06:02.707Z,3.95
2023-03-15T21:08:30.401Z,3.65
2023-03-15T21:10:57.715Z,3.97
2023-03-15T21:13:25.066Z,3.10
2023-03-15T21:15:53.426Z,2.95
2023-03-15T21:18:21.947Z,3.03
2023-03-15T21:20:56.844Z,3.13
2023-03-15T21:23:24.304Z,3.75
2023-03-15T21:25:55.666Z,4.35
2023-03-15T21:28:23.380Z,2.70
2023-03-15T21:30:51.767Z,2.70
2023-03-15T21:33:19.166Z,3.13
2023-03-15T21:35:46.467Z,2.80
2023-03-15T21:38:14.361Z,3.10
2023-03-15T21:40:48.425Z,3.38
2023-03-15T21:43:15.694Z,2.63
2023-03-15T21:45:43.133Z,2.40
2023-03-15T21:48:11.755Z,2.70
2023-03-15T21:50:38.998Z,2.60
2023-03-15T21:53:06.215Z,3.53
2023-03-15T21:55:36.217Z,2.63
2023-03-15T21:58:04.880Z,3.20
2023-03-15T22:00:32.646Z,2.45
2023-03-15T22:02:59.928Z,2.60
2023-03-15T22:05:27.233Z,3.22
2023-03-15T22:07:54.460Z,3.20
2023-03-15T22:10:23.096Z,3.30
2023-03-15T22:12:54.014Z,2.92
2023-03-15T22:15:24.647Z,2.78
2023-03-15T22:17:51.897Z,2.55
2023-03-15T22:20:19.230Z,2.38
2023-03-15T22:22:47.349Z,2.95
2023-03-15T22:25:14.834Z,2.50
2023-03-15T22:27:42.079Z,2.28
2023-03-15T22:30:10.519Z,3.80
2023-03-15T22:32:37.860Z,2.30
2023-03-15T22:35:05.752Z,3.03
2023-03-15T22:37:34.778Z,2.65
2023-03-15T22:40:02.011Z,2.20
2023-03-15T22:42:29.210Z,2.22
2023-03-15T22:44:56.518Z,2.30
2023-03-15T22:47:23.801Z,2.15
2023-03-15T22:49:52.478Z,1.92
2023-03-15T22:52:19.723Z,2.05
2023-03-15T22:54:47.092Z,2.22
2023-03-15T22:57:14.336Z,2.10
2023-03-15T22:59:41.678Z,1.98
2023-03-15T23:02:09.106Z,2.10
2023-03-15T23:04:36.438Z,2.17
2023-03-15T23:07:03.711Z,2.38
2023-03-15T23:09:30.957Z,2.40
2023-03-15T23:11:58.242Z,1.90
2023-03-15T23:14:25.468Z,2.80
2023-03-15T23:16:52.746Z,2.72
2023-03-15T23:19:20.002Z,2.10
2023-03-15T23:21:47.232Z,2.00
2023-03-15T23:24:17.308Z,2.00
2023-03-15T23:26:44.633Z,1.55
2023-03-15T23:29:11.914Z,1.75
2023-03-15T23:31:39.381Z,1.90
2023-03-15T23:34:07.441Z,1.23
2023-03-15T23:36:35.011Z,1.45
2023-03-15T23:39:02.244Z,1.38
2023-03-15T23:41:29.465Z,1.58
2023-03-15T23:43:56.836Z,1.75
2023-03-15T23:46:24.167Z,1.85
2023-03-15T23:48:52.511Z,1.50
2023-03-15T23:51:20.035Z,1.35
2023-03-15T23:53:47.388Z,1.95
2023-03-15T23:56:14.637Z,1.75
2023-03-15T23:58:41.876Z,1.52
